createdAt,value
2023-04-06T00:01:02.423Z,99236.44
2023-04-06T00:06:11.212Z,99236.00
2023-04-06T00:11:18.365Z,99227.69
2023-04-06T00:16:28.948Z,99226.41
2023-04-06T00:21:38.748Z,99227.84
2023-04-06T00:26:44.328Z,99231.53
2023-04-06T00:31:54.443Z,99226.31
2023-04-06T00:37:01.252Z,99214.50
2023-04-06T00:42:14.752Z,99223.34
2023-04-06T00:47:23.352Z,99220.97
2023-04-06T00:52:29.480Z,99226.22
2023-04-06T00:57:35.664Z,99219.03
2023-04-06T01:02:44.189Z,99227.78
2023-04-06T01:07:49.967Z,99220.03
2023-04-06T01:12:59.719Z,99221.97
2023-04-06T01:18:35.072Z,99220.75
2023-04-06T01:24:08.643Z,99210.00
2023-04-06T01:29:32.200Z,99207.72
2023-04-06T01:34:41.405Z,99220.00
2023-04-06T01:39:50.883Z,99214.03
2023-04-06T01:45:05.251Z,99206.84
2023-04-06T01:50:11.868Z,99203.53
2023-04-06T01:55:28.862Z,99207.84
2023-04-06T02:00:57.475Z,99203.53
2023-04-06T02:06:04.988Z,99207.28
2023-04-06T02:11:18.212Z,99209.34
2023-04-06T02:16:27.413Z,99223.88
2023-04-06T02:21:32.975Z,99213.53
2023-04-06T02:26:42.856Z,99199.63
2023-04-06T02:31:48.619Z,99212.81
2023-04-06T02:36:54.365Z,99205.09
2023-04-06T02:42:03.151Z,99207.50
2023-04-06T02:47:09.307Z,99206.00
2023-04-06T02:52:16.283Z,99208.66
2023-04-06T02:57:26.871Z,99204.06
2023-04-06T03:02:33.917Z,99206.34
2023-04-06T03:07:46.883Z,99196.84
2023-04-06T03:13:03.330Z,99210.78
2023-04-06T03:18:30.101Z,99204.13
2023-04-06T03:23:37.360Z,99207.81
2023-04-06T03:28:48.165Z,99196.84
2023-04-06T03:33:54.788Z,99193.63
2023-04-06T03:39:10.757Z,99204.19
2023-04-06T03:44:23.651Z,99216.81
2023-04-06T03:49:31.933Z,99224.41
2023-04-06T03:54:39.435Z,99216.19
2023-04-06T03:59:47.560Z,99213.03
2023-04-06T04:04:53.529Z,99228.38
2023-04-06T04:09:59.979Z,99226.75
2023-04-06T04:15:09.960Z,99225.59
2023-04-06T04:20:23.018Z,99226.56
2023-04-06T04:25:28.839Z,99239.13
2023-04-06T04:30:37.177Z,99226.75
2023-04-06T04:35:50.215Z,99232.84
2023-04-06T04:41:06.199Z,99232.34
2023-04-06T04:46:17.225Z,99241.88
2023-04-06T04:51:24.173Z,99231.34
2023-04-06T04:56:45.997Z,99236.47
2023-04-06T05:02:05.312Z,99221.00
2023-04-06T05:07:22.408Z,99225.81
2023-04-06T05:12:30.446Z,99226.31
2023-04-06T05:17:47.625Z,99225.44
2023-04-06T05:22:58.524Z,99219.84
2023-04-06T05:28:04.382Z,99221.63
2023-04-06T05:33:17.089Z,99214.63
2023-04-06T05:38:37.004Z,99219.00
2023-04-06T05:43:52.196Z,99224.47
2023-04-06T05:49:03.747Z,99249.84
2023-04-06T05:54:13.505Z,99237.00
2023-04-06T05:59:22.906Z,99242.34
2023-04-06T06:04:32.784Z,99226.50
2023-04-06T06:09:39.126Z,99228.84
2023-04-06T06:15:01.536Z,99222.69
2023-04-06T06:20:35.252Z,99234.38
2023-04-06T06:25:43.914Z,99227.41
2023-04-06T06:30:53.746Z,99225.47
2023-04-06T06:36:04.804Z,99235.16
2023-04-06T06:41:10.585Z,99233.53
2023-04-06T06:46:17.357Z,99221.97
2023-04-06T06:51:28.420Z,99230.66
2023-04-06T06:56:34.467Z,99239.19
2023-04-06T07:01:43.672Z,99253.25
2023-04-06T07:06:52.554Z,99237.06
2023-04-06T07:12:04.742Z,99234.44
2023-04-06T07:17:11.015Z,99228.59
2023-04-06T07:22:20.939Z,99222.63
2023-04-06T07:27:30.695Z,99226.13
2023-04-06T07:32:50.905Z,99211.84
2023-04-06T07:38:00.044Z,99225.91
2023-04-06T07:43:08.846Z,99237.56
2023-04-06T07:48:24.769Z,99237.25
2023-04-06T07:53:34.598Z,99225.03
2023-04-06T07:58:40.513Z,99227.97
2023-04-06T08:03:48.871Z,99227.25
2023-04-06T08:09:11.415Z,99242.50
2023-04-06T08:14:24.016Z,99243.66
2023-04-06T08:19:43.145Z,99247.03
2023-04-06T08:24:51.815Z,99243.09
2023-04-06T08:29:59.881Z,99238.03
2023-04-06T08:35:06.162Z,99236.28
2023-04-06T08:40:18.288Z,99244.25
2023-04-06T08:45:24.191Z,99232.88
2023-04-06T08:50:33.240Z,99236.00
2023-04-06T08:55:50.878Z,99235.00
2023-04-06T09:00:56.825Z,99239.41
2023-04-06T09:06:03.932Z,99227.69
2023-04-06T09:11:15.614Z,99232.94
2023-04-06T09:16:25.824Z,99224.66
2023-04-06T09:21:37.428Z,99222.59
2023-04-06T09:26:52.098Z,99204.19
2023-04-06T09:32:07.448Z,99227.28
2023-04-06T09:37:19.501Z,99203.13
2023-04-06T09:42:38.764Z,99202.84
2023-04-06T09:47:47.745Z,99204.50
2023-04-06T09:53:00.252Z,99205.03
2023-04-06T09:58:11.972Z,99191.31
2023-04-06T10:03:24.651Z,99195.03
2023-04-06T10:08:33.668Z,99189.28
2023-04-06T10:13:47.569Z,99201.59
2023-04-06T10:19:03.586Z,99198.84
2023-04-06T10:24:20.563Z,99194.00
2023-04-06T10:29:31.656Z,99195.00
2023-04-06T10:34:41.072Z,99187.19
2023-04-06T10:39:59.827Z,99182.34
2023-04-06T10:45:14.032Z,99191.00
2023-04-06T10:50:23.120Z,99190.97
2023-04-06T10:55:31.635Z,99189.34
2023-04-06T11:00:49.546Z,99181.47
2023-04-06T11:05:56.483Z,99184.03
2023-04-06T11:11:24.423Z,99177.69
2023-04-06T11:16:35.338Z,99169.06
2023-04-06T11:21:44.832Z,99171.81
2023-04-06T11:26:55.555Z,99165.28
2023-04-06T11:32:11.369Z,99167.06
2023-04-06T11:37:19.512Z,99172.28
2023-04-06T11:42:32.855Z,99156.28
2023-04-06T11:47:44.834Z,99151.78
2023-04-06T11:53:01.825Z,99145.03
2023-04-06T11:58:11.545Z,99151.44
2023-04-06T12:03:20.999Z,99143.56
2023-04-06T12:08:27.396Z,99137.03
2023-04-06T12:13:44.135Z,99137.94
2023-04-06T12:18:58.795Z,99114.16
2023-04-06T12:24:08.164Z,99119.56
2023-04-06T12:29:14.495Z,99115.38
2023-04-06T12:34:27.288Z,99114.19
2023-04-06T12:39:34.329Z,99103.84
2023-04-06T12:44:39.770Z,99092.72
2023-04-06T12:49:48.806Z,99105.00
2023-04-06T12:54:56.427Z,99102.25
2023-04-06T13:00:05.511Z,99088.22
2023-04-06T13:05:22.864Z,99101.69
2023-04-06T13:10:28.166Z,99100.13
2023-04-06T13:15:38.082Z,99089.09
2023-04-06T13:20:47.847Z,99089.28
2023-04-06T13:26:05.649Z,99092.47
2023-04-06T13:31:12.150Z,99090.47
2023-04-06T13:36:22.919Z,99087.50
2023-04-06T13:41:33.253Z,99085.88
2023-04-06T13:46:39.876Z,99074.41
2023-04-06T13:51:50.009Z,99077.19
2023-04-06T13:56:59.166Z,99062.72
2023-04-06T14:02:15.281Z,99054.63
2023-04-06T14:07:28.891Z,99050.81
2023-04-06T14:12:36.000Z,99059.56
2023-04-06T14:17:44.118Z,99047.13
2023-04-06T14:22:55.402Z,99051.66
2023-04-06T14:28:00.887Z,99051.53
2023-04-06T14:33:07.030Z,99043.59
2023-04-06T14:38:16.397Z,99047.13
2023-04-06T14:43:22.250Z,99052.09
2023-04-06T14:48:33.218Z,99053.66
2023-04-06T14:53:43.799Z,99036.88
2023-04-06T14:58:49.653Z,99032.03
2023-04-06T15:03:56.700Z,99047.84
2023-04-06T15:09:06.905Z,99035.59
2023-04-06T15:14:14.627Z,99034.19
2023-04-06T15:19:23.003Z,99028.25
2023-04-06T15:24:31.242Z,99041.00
2023-04-06T15:29:37.675Z,99041.50
2023-04-06T15:34:44.514Z,99044.53
2023-04-06T15:39:52.817Z,99036.25
2023-04-06T15:45:02.072Z,99021.31
2023-04-06T15:50:08.830Z,99028.97
2023-04-06T15:55:17.594Z,99034.66
2023-04-06T16:00:25.655Z,99028.06
2023-04-06T16:05:34.996Z,99026.22
2023-04-06T16:11:01.653Z,99033.69
2023-04-06T16:16:10.964Z,99025.50
2023-04-06T16:21:19.347Z,99031.91
2023-04-06T16:26:27.419Z,99021.78
2023-04-06T16:31:33.605Z,99029.84
2023-04-06T16:36:41.430Z,99027.41
2023-04-06T16:41:49.423Z,99026.72
2023-04-06T16:46:55.480Z,99026.88
2023-04-06T16:52:04.204Z,99037.34
2023-04-06T16:57:14.954Z,99030.13
2023-04-06T17:02:22.113Z,99028.25
2023-04-06T17:07:32.827Z,99026.66
2023-04-06T17:12:43.052Z,99028.75
2023-04-06T17:17:49.394Z,99031.53
2023-04-06T17:22:55.610Z,99026.00
2023-04-06T17:28:05.180Z,99043.44
2023-04-06T17:33:15.009Z,99038.38
2023-04-06T17:38:20.654Z,99049.53
2023-04-06T17:43:30.240Z,99043.09
2023-04-06T17:48:38.228Z,99052.78
2023-04-06T17:53:44.736Z,99047.44
2023-04-06T17:58:54.019Z,99053.56
2023-04-06T18:04:00.840Z,99057.66
2023-04-06T18:09:06.870Z,99054.50
2023-04-06T18:14:16.768Z,99064.84
2023-04-06T18:19:22.540Z,99063.81
2023-04-06T18:24:41.157Z,99067.38
2023-04-06T18:29:51.537Z,99072.41
2023-04-06T18:34:58.215Z,99072.22
2023-04-06T18:40:04.561Z,99078.44
2023-04-06T18:45:16.615Z,99084.25
2023-04-06T18:50:22.373Z,99080.84
2023-04-06T18:55:31.140Z,99093.09
2023-04-06T19:00:39.978Z,99077.81
2023-04-06T19:05:45.515Z,99084.53
2023-04-06T19:10:51.983Z,99086.56
2023-04-06T19:16:01.462Z,99089.75
2023-04-06T19:21:08.854Z,99090.25
2023-04-06T19:26:18.079Z,99087.63
2023-04-06T19:31:28.204Z,99090.81
2023-04-06T19:36:35.911Z,99078.91
2023-04-06T19:41:43.922Z,99090.22
2023-04-06T19:46:53.995Z,99082.88
2023-04-06T19:52:01.093Z,99089.50
2023-04-06T19:57:06.831Z,99087.66
2023-04-06T20:02:19.025Z,99076.00
2023-04-06T20:07:24.667Z,99086.03
2023-04-06T20:12:30.919Z,99082.84
2023-04-06T20:17:40.811Z,99094.97
2023-04-06T20:22:50.558Z,99102.41
2023-04-06T20:27:58.040Z,99084.69
2023-04-06T20:33:07.099Z,99096.06
2023-04-06T20:38:14.396Z,99085.44
2023-04-06T20:43:27.400Z,99083.00
2023-04-06T20:48:53.458Z,99089.31
2023-04-06T20:54:04.431Z,99093.44
2023-04-06T20:59:10.594Z,99088.13
2023-04-06T21:04:22.434Z,99093.97
2023-04-06T21:09:33.661Z,99092.25
2023-04-06T21:14:43.144Z,99096.72
2023-04-06T21:20:01.877Z,99087.88
2023-04-06T21:25:09.036Z,99085.59
2023-04-06T21:30:16.208Z,99092.94
2023-04-06T21:35:29.304Z,99093.00
2023-04-06T21:40:36.268Z,99093.56
2023-04-06T21:45:42.342Z,99082.38
2023-04-06T21:50:51.106Z,99080.59
2023-04-06T21:55:57.914Z,99073.38
2023-04-06T22:01:04.772Z,99077.28
2023-04-06T22:06:13.767Z,99063.34
2023-04-06T22:11:20.364Z,99062.41
2023-04-06T22:16:28.294Z,99067.75
2023-04-06T22:21:40.216Z,99068.84
2023-04-06T22:26:45.995Z,99062.66
2023-04-06T22:31:54.257Z,99057.63
2023-04-06T22:37:03.346Z,99049.38
2023-04-06T22:42:09.449Z,99055.47
2023-04-06T22:47:15.037Z,99052.97
2023-04-06T22:52:23.995Z,99054.81
2023-04-06T22:57:30.153Z,99056.13
2023-04-06T23:02:36.530Z,99044.81
2023-04-06T23:07:46.078Z,99050.09
2023-04-06T23:12:51.630Z,99043.72
2023-04-06T23:17:58.075Z,99050.09
2023-04-06T23:23:06.695Z,99040.38
2023-04-06T23:28:12.775Z,99043.41
2023-04-06T23:33:18.730Z,99033.31
2023-04-06T23:38:27.429Z,99040.09
2023-04-06T23:43:42.308Z,99037.56
2023-04-06T23:48:48.313Z,99025.91
2023-04-06T23:53:59.182Z,99033.91
2023-04-06T23:59:04.853Z,99029.94
